Terminal Aerodrome Forecast
Issued by NWS Corpus Christi, TX

Home | Current Version | Previous Version | Text Only | Print | Product List | Glossary On
Versions: 1 2 3 4 5 6 7 8 9 10 11 12
000
FTUS44 KCRP 100500
TAFCRP
TAF
KCRP 100525Z 1006/1106 16006KT P6SM SCT150 SCT250
     FM100900 15004KT P6SM VCSH SCT015 BKN150
     FM101600 15014G20KT P6SM VCTS SCT030CB BKN150
     FM102200 14014G20KT P6SM FEW035 SCT150
     FM110200 12006KT P6SM OVC250=

USA.gov is the U.S. government's official web portal to all federal, state and local government web resources and services.